sensor_id;sensor_type;location;lat;lon;timestamp;P1;durP1;ratioP1;P2;durP2;ratioP2
55013;SDS011;40916;51.632;5.552;2023-01-01T00:04:32;5.9;;;17.8;;
55013;SDS011;40916;51.632;5.552;2023-01-01T00:09:32;5;;;18.6;;
55013;SDS011;40916;51.632;5.552;2023-01-01T00:14:32;3.2;;;8.3;;
55013;SDS011;40916;51.632;5.552;2023-01-01T00:19:32;3.6;;;14;;
55013;SDS011;40916;51.632;5.552;2023-01-01T00:24:32;3.9;;;14.4;;
55013;SDS011;40916;51.632;5.552;2023-01-01T00:29:32;3;;;11.5;;
55013;SDS011;40916;51.632;5.552;2023-01-01T00:34:32;2.8;;;9.1;;
55013;SDS011;40916;51.632;5.552;2023-01-01T00:39:32;7.5;;;21.9;;
55013;SDS011;40916;51.632;5.552;2023-01-01T00:44:32;3;;;12.5;;
55013;SDS011;40916;51.632;5.552;2023-01-01T00:49:32;3.2;;;10;;
55013;SDS011;40916;51.632;5.552;2023-01-01T00:54:32;2.4;;;7;;
55013;SDS011;40916;51.632;5.552;2023-01-01T00:59:32;2.9;;;13.8;;
55013;SDS011;40916;51.632;5.552;2023-01-01T01:04:33;3.5;;;11.9;;
55013;SDS011;40916;51.632;5.552;2023-01-01T01:09:32;2.6;;;6.9;;
55013;SDS011;40916;51.632;5.552;2023-01-01T01:14:32;3.1;;;17.1;;
55013;SDS011;40916;51.632;5.552;2023-01-01T01:19:32;3.2;;;13.8;;
55013;SDS011;40916;51.632;5.552;2023-01-01T01:24:32;4.1;;;8.4;;
55013;SDS011;40916;51.632;5.552;2023-01-01T01:29:32;2.1;;;9.7;;
55013;SDS011;40916;51.632;5.552;2023-01-01T01:34:32;2.4;;;7.6;;
55013;SDS011;40916;51.632;5.552;2023-01-01T01:39:32;3.1;;;7.9;;
55013;SDS011;40916;51.632;5.552;2023-01-01T01:45:05;1.9;;;5.6;;
55013;SDS011;40916;51.632;5.552;2023-01-01T01:49:32;2.2;;;9.7;;
55013;SDS011;40916;51.632;5.552;2023-01-01T01:54:32;2.1;;;5.4;;
55013;SDS011;40916;51.632;5.552;2023-01-01T01:59:33;2.2;;;6.8;;
55013;SDS011;40916;51.632;5.552;2023-01-01T02:04:32;2.4;;;7.7;;
55013;SDS011;40916;51.632;5.552;2023-01-01T02:09:32;2.9;;;14;;
55013;SDS011;40916;51.632;5.552;2023-01-01T02:14:32;2.2;;;13.6;;
55013;SDS011;40916;51.632;5.552;2023-01-01T02:19:36;1.5;;;3.8;;
55013;SDS011;40916;51.632;5.552;2023-01-01T02:24:35;3.5;;;19.1;;
55013;SDS011;40916;51.632;5.552;2023-01-01T02:29:35;2.2;;;11.1;;
55013;SDS011;40916;51.632;5.552;2023-01-01T02:34:33;2.6;;;10.2;;
55013;SDS011;40916;51.632;5.552;2023-01-01T02:39:33;2;;;7.2;;
55013;SDS011;40916;51.632;5.552;2023-01-01T02:44:33;2;;;7.6;;
55013;SDS011;40916;51.632;5.552;2023-01-01T02:49:33;1.5;;;5.6;;
55013;SDS011;40916;51.632;5.552;2023-01-01T02:54:34;2.2;;;8.7;;
55013;SDS011;40916;51.632;5.552;2023-01-01T02:59:34;2;;;9.3;;
55013;SDS011;40916;51.632;5.552;2023-01-01T03:04:34;3;;;9.2;;
55013;SDS011;40916;51.632;5.552;2023-01-01T03:09:36;2;;;7.6;;
55013;SDS011;40916;51.632;5.552;2023-01-01T03:14:35;2.2;;;11.9;;
55013;SDS011;40916;51.632;5.552;2023-01-01T03:19:33;2.3;;;7.1;;
55013;SDS011;40916;51.632;5.552;2023-01-01T03:24:33;3.7;;;14.6;;
55013;SDS011;40916;51.632;5.552;2023-01-01T03:29:33;1.7;;;8.7;;
55013;SDS011;40916;51.632;5.552;2023-01-01T03:34:33;1.8;;;9.6;;
55013;SDS011;40916;51.632;5.552;2023-01-01T03:39:33;1.9;;;5.4;;
55013;SDS011;40916;51.632;5.552;2023-01-01T03:44:34;1.9;;;6.1;;
55013;SDS011;40916;51.632;5.552;2023-01-01T03:49:32;1.5;;;5.4;;
55013;SDS011;40916;51.632;5.552;2023-01-01T03:54:35;1.5;;;4.8;;
55013;SDS011;40916;51.632;5.552;2023-01-01T03:59:33;1.8;;;12.9;;
55013;SDS011;40916;51.632;5.552;2023-01-01T04:04:32;1.6;;;5.7;;
55013;SDS011;40916;51.632;5.552;2023-01-01T04:09:32;1.9;;;10.7;;
55013;SDS011;40916;51.632;5.552;2023-01-01T04:14:33;0.9;;;3.7;;
55013;SDS011;40916;51.632;5.552;2023-01-01T04:19:32;1.8;;;6.9;;
55013;SDS011;40916;51.632;5.552;2023-01-01T04:24:32;1.7;;;7.1;;
55013;SDS011;40916;51.632;5.552;2023-01-01T04:29:32;3.2;;;7.8;;
55013;SDS011;40916;51.632;5.552;2023-01-01T04:34:32;1.4;;;6.3;;
55013;SDS011;40916;51.632;5.552;2023-01-01T04:39:32;1.7;;;8;;
55013;SDS011;40916;51.632;5.552;2023-01-01T04:44:32;1.7;;;5.9;;
55013;SDS011;40916;51.632;5.552;2023-01-01T04:49:32;1.4;;;3.5;;
55013;SDS011;40916;51.632;5.552;2023-01-01T04:54:32;1.6;;;4.1;;
55013;SDS011;40916;51.632;5.552;2023-01-01T04:59:32;1.3;;;5;;
55013;SDS011;40916;51.632;5.552;2023-01-01T05:04:32;1.6;;;11.3;;
55013;SDS011;40916;51.632;5.552;2023-01-01T05:09:32;1.9;;;7.4;;
55013;SDS011;40916;51.632;5.552;2023-01-01T05:14:32;2;;;10.3;;
55013;SDS011;40916;51.632;5.552;2023-01-01T05:19:32;2.1;;;6.8;;
55013;SDS011;40916;51.632;5.552;2023-01-01T05:24:32;1.8;;;11.1;;
55013;SDS011;40916;51.632;5.552;2023-01-01T05:29:32;1.4;;;3.9;;
55013;SDS011;40916;51.632;5.552;2023-01-01T05:34:32;2.1;;;5.9;;
55013;SDS011;40916;51.632;5.552;2023-01-01T05:39:32;1.9;;;9.5;;
55013;SDS011;40916;51.632;5.552;2023-01-01T05:44:32;2.4;;;10;;
55013;SDS011;40916;51.632;5.552;2023-01-01T05:49:32;1.4;;;6.5;;
55013;SDS011;40916;51.632;5.552;2023-01-01T05:54:32;1.2;;;4.1;;
55013;SDS011;40916;51.632;5.552;2023-01-01T05:59:32;1.9;;;14.8;;
55013;SDS011;40916;51.632;5.552;2023-01-01T06:04:32;1.8;;;5.5;;
55013;SDS011;40916;51.632;5.552;2023-01-01T06:09:32;1.3;;;3;;
55013;SDS011;40916;51.632;5.552;2023-01-01T06:14:32;2.8;;;9.5;;
55013;SDS011;40916;51.632;5.552;2023-01-01T06:19:32;1.2;;;4.9;;
55013;SDS011;40916;51.632;5.552;2023-01-01T06:24:32;1.3;;;3.5;;
55013;SDS011;40916;51.632;5.552;2023-01-01T06:29:32;2;;;7.8;;
55013;SDS011;40916;51.632;5.552;2023-01-01T06:34:32;1.7;;;4;;
55013;SDS011;40916;51.632;5.552;2023-01-01T06:39:32;1.4;;;14.8;;
55013;SDS011;40916;51.632;5.552;2023-01-01T06:44:32;1.7;;;5.6;;
55013;SDS011;40916;51.632;5.552;2023-01-01T06:49:32;2;;;8.2;;
55013;SDS011;40916;51.632;5.552;2023-01-01T06:54:32;2.2;;;10.7;;
55013;SDS011;40916;51.632;5.552;2023-01-01T06:59:32;1.7;;;9.5;;
55013;SDS011;40916;51.632;5.552;2023-01-01T07:04:32;1.6;;;4.4;;
55013;SDS011;40916;51.632;5.552;2023-01-01T07:09:32;1.5;;;6.7;;
55013;SDS011;40916;51.632;5.552;2023-01-01T07:14:32;1.4;;;9.7;;
55013;SDS011;40916;51.632;5.552;2023-01-01T07:19:32;1.6;;;4.3;;
55013;SDS011;40916;51.632;5.552;2023-01-01T07:24:32;1.9;;;5.7;;
55013;SDS011;40916;51.632;5.552;2023-01-01T07:29:32;2.5;;;7.9;;
55013;SDS011;40916;51.632;5.552;2023-01-01T07:34:32;2;;;13.9;;
55013;SDS011;40916;51.632;5.552;2023-01-01T07:39:32;2.4;;;6;;
55013;SDS011;40916;51.632;5.552;2023-01-01T07:44:32;1.7;;;6.8;;
55013;SDS011;40916;51.632;5.552;2023-01-01T07:49:32;1.7;;;10.9;;
55013;SDS011;40916;51.632;5.552;2023-01-01T07:54:32;1.5;;;6.1;;
55013;SDS011;40916;51.632;5.552;2023-01-01T07:59:32;1.1;;;9.4;;
55013;SDS011;40916;51.632;5.552;2023-01-01T08:04:32;0.9;;;2.9;;
55013;SDS011;40916;51.632;5.552;2023-01-01T08:09:32;0.9;;;5;;
55013;SDS011;40916;51.632;5.552;2023-01-01T08:14:32;1.8;;;7.5;;
55013;SDS011;40916;51.632;5.552;2023-01-01T08:19:32;1.2;;;5.5;;
55013;SDS011;40916;51.632;5.552;2023-01-01T08:24:32;1.6;;;5.8;;
55013;SDS011;40916;51.632;5.552;2023-01-01T08:29:32;0.9;;;2.6;;
55013;SDS011;40916;51.632;5.552;2023-01-01T08:34:32;1.7;;;8.7;;
55013;SDS011;40916;51.632;5.552;2023-01-01T08:39:32;1.5;;;10.2;;
55013;SDS011;40916;51.632;5.552;2023-01-01T08:44:32;1.4;;;3.1;;
55013;SDS011;40916;51.632;5.552;2023-01-01T08:49:32;1.5;;;9.4;;
55013;SDS011;40916;51.632;5.552;2023-01-01T08:54:32;1.2;;;5;;
55013;SDS011;40916;51.632;5.552;2023-01-01T08:59:32;1.2;;;5.9;;
55013;SDS011;40916;51.632;5.552;2023-01-01T09:04:32;1.7;;;12.2;;
55013;SDS011;40916;51.632;5.552;2023-01-01T09:09:32;1.5;;;6.2;;
55013;SDS011;40916;51.632;5.552;2023-01-01T09:14:32;1.9;;;5.6;;
55013;SDS011;40916;51.632;5.552;2023-01-01T09:19:32;1.8;;;7.1;;
55013;SDS011;40916;51.632;5.552;2023-01-01T09:24:32;1.9;;;11.5;;
55013;SDS011;40916;51.632;5.552;2023-01-01T09:29:32;2.5;;;12.4;;
55013;SDS011;40916;51.632;5.552;2023-01-01T09:34:32;2.2;;;12.2;;
55013;SDS011;40916;51.632;5.552;2023-01-01T09:39:32;2.4;;;11.1;;
55013;SDS011;40916;51.632;5.552;2023-01-01T09:44:39;2.6;;;11.2;;
55013;SDS011;40916;51.632;5.552;2023-01-01T09:49:33;3.9;;;13.3;;
55013;SDS011;40916;51.632;5.552;2023-01-01T09:54:32;3.5;;;9.5;;
55013;SDS011;40916;51.632;5.552;2023-01-01T09:59:32;3.4;;;15.4;;
55013;SDS011;40916;51.632;5.552;2023-01-01T10:04:36;3;;;10.5;;
55013;SDS011;40916;51.632;5.552;2023-01-01T10:09:33;3.3;;;12.7;;
55013;SDS011;40916;51.632;5.552;2023-01-01T10:14:33;3.1;;;13.3;;
55013;SDS011;40916;51.632;5.552;2023-01-01T10:19:33;4.3;;;13.7;;
55013;SDS011;40916;51.632;5.552;2023-01-01T10:24:34;3.3;;;14.4;;
55013;SDS011;40916;51.632;5.552;2023-01-01T10:29:35;3.5;;;16.3;;
55013;SDS011;40916;51.632;5.552;2023-01-01T10:34:32;3.6;;;10.4;;
55013;SDS011;40916;51.632;5.552;2023-01-01T10:39:32;3.7;;;11.4;;
55013;SDS011;40916;51.632;5.552;2023-01-01T10:44:33;4.1;;;10.5;;
55013;SDS011;40916;51.632;5.552;2023-01-01T10:49:32;3.1;;;6.1;;
55013;SDS011;40916;51.632;5.552;2023-01-01T10:54:32;4;;;10.8;;
55013;SDS011;40916;51.632;5.552;2023-01-01T10:59:33;3.7;;;14.8;;
55013;SDS011;40916;51.632;5.552;2023-01-01T11:04:32;3;;;14.9;;
55013;SDS011;40916;51.632;5.552;2023-01-01T11:09:32;4.1;;;13.5;;
55013;SDS011;40916;51.632;5.552;2023-01-01T11:14:33;3.6;;;12.9;;
55013;SDS011;40916;51.632;5.552;2023-01-01T11:19:32;4.3;;;16.8;;
55013;SDS011;40916;51.632;5.552;2023-01-01T11:24:32;3.8;;;19.9;;
55013;SDS011;40916;51.632;5.552;2023-01-01T11:29:32;3.5;;;12.7;;
55013;SDS011;40916;51.632;5.552;2023-01-01T11:34:33;3;;;12.9;;
55013;SDS011;40916;51.632;5.552;2023-01-01T11:39:32;2.9;;;11.7;;
55013;SDS011;40916;51.632;5.552;2023-01-01T11:44:33;3.6;;;15.4;;
55013;SDS011;40916;51.632;5.552;2023-01-01T11:49:32;4.2;;;13.2;;
55013;SDS011;40916;51.632;5.552;2023-01-01T11:54:32;3;;;18.2;;
55013;SDS011;40916;51.632;5.552;2023-01-01T11:59:35;3.5;;;16.1;;
55013;SDS011;40916;51.632;5.552;2023-01-01T12:04:34;1.3;;;5.7;;
55013;SDS011;40916;51.632;5.552;2023-01-01T12:09:34;3.2;;;17.4;;
55013;SDS011;40916;51.632;5.552;2023-01-01T12:14:33;2.9;;;13.6;;
55013;SDS011;40916;51.632;5.552;2023-01-01T12:19:33;3.2;;;14.3;;
55013;SDS011;40916;51.632;5.552;2023-01-01T12:24:32;2.2;;;10.9;;
55013;SDS011;40916;51.632;5.552;2023-01-01T12:29:35;1.5;;;4.9;;
55013;SDS011;40916;51.632;5.552;2023-01-01T12:34:32;2.8;;;15.7;;
55013;SDS011;40916;51.632;5.552;2023-01-01T12:39:40;2.2;;;5.4;;
55013;SDS011;40916;51.632;5.552;2023-01-01T12:44:33;2.7;;;14.5;;
55013;SDS011;40916;51.632;5.552;2023-01-01T12:49:35;2.6;;;18.4;;
55013;SDS011;40916;51.632;5.552;2023-01-01T12:55:39;3.2;;;18;;
55013;SDS011;40916;51.632;5.552;2023-01-01T12:59:32;2.5;;;15.7;;
55013;SDS011;40916;51.632;5.552;2023-01-01T13:04:32;2.4;;;9.2;;
55013;SDS011;40916;51.632;5.552;2023-01-01T13:09:32;4.5;;;16.1;;
55013;SDS011;40916;51.632;5.552;2023-01-01T13:14:36;2.8;;;16.1;;
55013;SDS011;40916;51.632;5.552;2023-01-01T13:19:32;2.7;;;10.6;;
55013;SDS011;40916;51.632;5.552;2023-01-01T13:24:32;2.5;;;14.9;;
55013;SDS011;40916;51.632;5.552;2023-01-01T13:29:33;2.3;;;12.5;;
55013;SDS011;40916;51.632;5.552;2023-01-01T13:34:33;2.3;;;14.5;;
55013;SDS011;40916;51.632;5.552;2023-01-01T13:44:32;2.8;;;15.4;;
55013;SDS011;40916;51.632;5.552;2023-01-01T13:49:33;2.7;;;15.9;;
55013;SDS011;40916;51.632;5.552;2023-01-01T13:54:39;3.1;;;15.6;;
55013;SDS011;40916;51.632;5.552;2023-01-01T13:59:44;2.9;;;15.7;;
55013;SDS011;40916;51.632;5.552;2023-01-01T14:04:34;3.4;;;15.5;;
55013;SDS011;40916;51.632;5.552;2023-01-01T14:09:32;2.3;;;10.6;;
55013;SDS011;40916;51.632;5.552;2023-01-01T14:14:31;2.7;;;14.9;;
55013;SDS011;40916;51.632;5.552;2023-01-01T14:19:32;2.2;;;13.3;;
55013;SDS011;40916;51.632;5.552;2023-01-01T14:24:32;2.7;;;15.2;;
55013;SDS011;40916;51.632;5.552;2023-01-01T14:29:32;3.5;;;21.8;;
55013;SDS011;40916;51.632;5.552;2023-01-01T14:34:32;2.9;;;17.5;;
55013;SDS011;40916;51.632;5.552;2023-01-01T14:39:32;3.4;;;18.2;;
55013;SDS011;40916;51.632;5.552;2023-01-01T14:44:32;2.9;;;13.6;;
55013;SDS011;40916;51.632;5.552;2023-01-01T14:49:32;3.1;;;14.4;;
55013;SDS011;40916;51.632;5.552;2023-01-01T14:54:32;2.6;;;15;;
55013;SDS011;40916;51.632;5.552;2023-01-01T14:59:32;3.1;;;16.3;;
55013;SDS011;40916;51.632;5.552;2023-01-01T15:04:31;2.8;;;15.1;;
55013;SDS011;40916;51.632;5.552;2023-01-01T15:09:31;3;;;13.5;;
55013;SDS011;40916;51.632;5.552;2023-01-01T15:14:32;3.3;;;14.4;;
55013;SDS011;40916;51.632;5.552;2023-01-01T15:19:31;3.7;;;12.1;;
55013;SDS011;40916;51.632;5.552;2023-01-01T15:24:31;3.3;;;16.1;;
55013;SDS011;40916;51.632;5.552;2023-01-01T15:29:32;4.3;;;16.6;;
55013;SDS011;40916;51.632;5.552;2023-01-01T15:34:32;4.3;;;16.5;;
55013;SDS011;40916;51.632;5.552;2023-01-01T15:39:31;4.9;;;14.8;;
55013;SDS011;40916;51.632;5.552;2023-01-01T15:44:32;4;;;12.2;;
55013;SDS011;40916;51.632;5.552;2023-01-01T15:49:31;4.6;;;21.9;;
55013;SDS011;40916;51.632;5.552;2023-01-01T15:54:31;3.3;;;14;;
55013;SDS011;40916;51.632;5.552;2023-01-01T15:59:32;3.7;;;16.7;;
55013;SDS011;40916;51.632;5.552;2023-01-01T16:04:31;3.6;;;14.6;;
55013;SDS011;40916;51.632;5.552;2023-01-01T16:09:31;3.8;;;18.4;;
55013;SDS011;40916;51.632;5.552;2023-01-01T16:14:31;3.9;;;16.1;;
55013;SDS011;40916;51.632;5.552;2023-01-01T16:19:31;4.1;;;18.2;;
55013;SDS011;40916;51.632;5.552;2023-01-01T16:24:31;4.9;;;16.6;;
55013;SDS011;40916;51.632;5.552;2023-01-01T16:29:31;5.3;;;24.8;;
55013;SDS011;40916;51.632;5.552;2023-01-01T16:34:31;5.3;;;17.9;;
55013;SDS011;40916;51.632;5.552;2023-01-01T16:39:31;3.6;;;16;;
55013;SDS011;40916;51.632;5.552;2023-01-01T16:44:31;4.1;;;19.7;;
55013;SDS011;40916;51.632;5.552;2023-01-01T16:49:31;4.3;;;13.1;;
55013;SDS011;40916;51.632;5.552;2023-01-01T16:54:31;4.9;;;22.6;;
55013;SDS011;40916;51.632;5.552;2023-01-01T16:59:31;4.9;;;23.5;;
55013;SDS011;40916;51.632;5.552;2023-01-01T17:04:31;5.3;;;16.7;;
55013;SDS011;40916;51.632;5.552;2023-01-01T17:09:31;4;;;19.3;;
55013;SDS011;40916;51.632;5.552;2023-01-01T17:14:31;3.7;;;11.7;;
55013;SDS011;40916;51.632;5.552;2023-01-01T17:19:31;3.4;;;14.9;;
55013;SDS011;40916;51.632;5.552;2023-01-01T17:24:31;3.5;;;12.9;;
55013;SDS011;40916;51.632;5.552;2023-01-01T17:29:31;3.6;;;13.7;;
55013;SDS011;40916;51.632;5.552;2023-01-01T17:34:31;4.1;;;14.1;;
55013;SDS011;40916;51.632;5.552;2023-01-01T17:39:31;4.3;;;17.3;;
55013;SDS011;40916;51.632;5.552;2023-01-01T17:44:31;4.3;;;18.4;;
55013;SDS011;40916;51.632;5.552;2023-01-01T17:49:31;5.1;;;16.7;;
55013;SDS011;40916;51.632;5.552;2023-01-01T17:54:31;3.9;;;10.5;;
55013;SDS011;40916;51.632;5.552;2023-01-01T17:59:31;3.6;;;16.8;;
55013;SDS011;40916;51.632;5.552;2023-01-01T18:04:31;3.4;;;14.3;;
55013;SDS011;40916;51.632;5.552;2023-01-01T18:09:31;3.7;;;14.4;;
55013;SDS011;40916;51.632;5.552;2023-01-01T18:14:31;3.9;;;10.9;;
55013;SDS011;40916;51.632;5.552;2023-01-01T18:19:31;2.8;;;9.7;;
55013;SDS011;40916;51.632;5.552;2023-01-01T18:24:31;3.4;;;15.3;;
55013;SDS011;40916;51.632;5.552;2023-01-01T18:29:31;2.8;;;11.2;;
55013;SDS011;40916;51.632;5.552;2023-01-01T18:34:31;3.1;;;12.2;;
55013;SDS011;40916;51.632;5.552;2023-01-01T18:39:31;3.1;;;9.3;;
55013;SDS011;40916;51.632;5.552;2023-01-01T18:44:31;9.9;;;26.2;;
55013;SDS011;40916;51.632;5.552;2023-01-01T18:49:32;6.9;;;18.5;;
55013;SDS011;40916;51.632;5.552;2023-01-01T18:54:31;3.1;;;11.3;;
55013;SDS011;40916;51.632;5.552;2023-01-01T18:59:31;3.7;;;11.7;;
55013;SDS011;40916;51.632;5.552;2023-01-01T19:04:31;4.7;;;11.8;;
55013;SDS011;40916;51.632;5.552;2023-01-01T19:09:31;5.8;;;12.4;;
55013;SDS011;40916;51.632;5.552;2023-01-01T19:14:31;5.3;;;13;;
55013;SDS011;40916;51.632;5.552;2023-01-01T19:19:32;5.6;;;14;;
55013;SDS011;40916;51.632;5.552;2023-01-01T19:24:31;3.3;;;7.9;;
55013;SDS011;40916;51.632;5.552;2023-01-01T19:29:31;3.6;;;6.8;;
55013;SDS011;40916;51.632;5.552;2023-01-01T19:34:31;4.3;;;11.1;;
55013;SDS011;40916;51.632;5.552;2023-01-01T19:39:31;3.9;;;10.8;;
55013;SDS011;40916;51.632;5.552;2023-01-01T19:44:32;3.7;;;7.6;;
55013;SDS011;40916;51.632;5.552;2023-01-01T19:49:31;4.1;;;8.6;;
55013;SDS011;40916;51.632;5.552;2023-01-01T19:54:31;3.7;;;8.6;;
55013;SDS011;40916;51.632;5.552;2023-01-01T19:59:31;4;;;9.6;;
55013;SDS011;40916;51.632;5.552;2023-01-01T20:04:31;4.9;;;11.4;;
55013;SDS011;40916;51.632;5.552;2023-01-01T20:09:31;4.5;;;11.3;;
55013;SDS011;40916;51.632;5.552;2023-01-01T20:14:31;4.3;;;15.3;;
55013;SDS011;40916;51.632;5.552;2023-01-01T20:19:31;5.1;;;12.6;;
55013;SDS011;40916;51.632;5.552;2023-01-01T20:24:31;4;;;8.9;;
55013;SDS011;40916;51.632;5.552;2023-01-01T20:29:31;4.3;;;11.8;;
55013;SDS011;40916;51.632;5.552;2023-01-01T20:34:31;4.6;;;13.1;;
55013;SDS011;40916;51.632;5.552;2023-01-01T20:39:31;4.2;;;10.9;;
55013;SDS011;40916;51.632;5.552;2023-01-01T20:44:31;6.6;;;18.6;;
55013;SDS011;40916;51.632;5.552;2023-01-01T20:49:31;5.6;;;15.3;;
55013;SDS011;40916;51.632;5.552;2023-01-01T20:54:31;6.8;;;20.5;;
55013;SDS011;40916;51.632;5.552;2023-01-01T20:59:31;6.3;;;13.8;;
55013;SDS011;40916;51.632;5.552;2023-01-01T21:04:31;5.8;;;13.8;;
55013;SDS011;40916;51.632;5.552;2023-01-01T21:09:31;6.1;;;17.8;;
55013;SDS011;40916;51.632;5.552;2023-01-01T21:14:31;6.8;;;13.2;;
55013;SDS011;40916;51.632;5.552;2023-01-01T21:19:31;7.6;;;18.9;;
55013;SDS011;40916;51.632;5.552;2023-01-01T21:24:31;7.1;;;17;;
55013;SDS011;40916;51.632;5.552;2023-01-01T21:29:31;6.9;;;17.1;;
55013;SDS011;40916;51.632;5.552;2023-01-01T21:34:33;7.3;;;17.9;;
55013;SDS011;40916;51.632;5.552;2023-01-01T21:39:31;7.4;;;17;;
55013;SDS011;40916;51.632;5.552;2023-01-01T21:44:31;7.3;;;16.9;;
55013;SDS011;40916;51.632;5.552;2023-01-01T21:49:32;7.8;;;20.3;;
55013;SDS011;40916;51.632;5.552;2023-01-01T21:54:31;8.1;;;16.5;;
55013;SDS011;40916;51.632;5.552;2023-01-01T21:59:32;9.5;;;21.4;;
55013;SDS011;40916;51.632;5.552;2023-01-01T22:04:33;9.7;;;24.4;;
55013;SDS011;40916;51.632;5.552;2023-01-01T22:09:31;8.5;;;18.2;;
55013;SDS011;40916;51.632;5.552;2023-01-01T22:14:32;7.5;;;18.3;;
55013;SDS011;40916;51.632;5.552;2023-01-01T22:19:31;8.2;;;21;;
55013;SDS011;40916;51.632;5.552;2023-01-01T22:24:31;8.1;;;21.5;;
55013;SDS011;40916;51.632;5.552;2023-01-01T22:29:31;7.4;;;18.2;;
55013;SDS011;40916;51.632;5.552;2023-01-01T22:34:31;6.9;;;14.4;;
55013;SDS011;40916;51.632;5.552;2023-01-01T22:39:33;7.9;;;15.9;;
55013;SDS011;40916;51.632;5.552;2023-01-01T22:44:31;8.2;;;20.5;;
55013;SDS011;40916;51.632;5.552;2023-01-01T22:49:31;7.2;;;18.8;;
55013;SDS011;40916;51.632;5.552;2023-01-01T22:54:31;7.8;;;17.7;;
55013;SDS011;40916;51.632;5.552;2023-01-01T22:59:31;7.2;;;21.5;;
55013;SDS011;40916;51.632;5.552;2023-01-01T23:04:31;6.8;;;15;;
55013;SDS011;40916;51.632;5.552;2023-01-01T23:09:31;6.7;;;15.2;;
55013;SDS011;40916;51.632;5.552;2023-01-01T23:14:31;7.2;;;17.7;;
55013;SDS011;40916;51.632;5.552;2023-01-01T23:19:31;6.7;;;18.1;;
55013;SDS011;40916;51.632;5.552;2023-01-01T23:24:31;6.9;;;16.8;;
55013;SDS011;40916;51.632;5.552;2023-01-01T23:29:31;6.9;;;20.4;;
55013;SDS011;40916;51.632;5.552;2023-01-01T23:34:31;6.4;;;14;;
55013;SDS011;40916;51.632;5.552;2023-01-01T23:39:31;6.3;;;23.3;;
55013;SDS011;40916;51.632;5.552;2023-01-01T23:44:31;6.7;;;21.7;;
55013;SDS011;40916;51.632;5.552;2023-01-01T23:49:31;6.7;;;21.3;;
55013;SDS011;40916;51.632;5.552;2023-01-01T23:54:31;6.2;;;13.6;;
55013;SDS011;40916;51.632;5.552;2023-01-01T23:59:31;4.2;;;13.7;;
